Dennis J. Pasentine — WDF2813 — position and weather

sailwx.info

Track history (hours):
 
Tides and Currents Weather Stations Pressure Air Temp Water Temp Dewpoint Dewpoint Depression Visibility Wind Speed Wind Dir Waves Ship Positions

Dennis J. Pasentine

More information available from US FCC via Universal Licensing System and Coast Guard Vessel Documentation Center.

Last reported at 2014-Jul-04 09:26 UTC. Time now 2014-Jul-25 09:04 UTC.
Position N 29°59' W 090°49'.
Warning: this ship's position is 20 days out of date.

Type: Other ship. MMSI: 367432180.

Date/timePositionNaut miles runAvg speedWind from/ knotsBaromVisibWave heightAir tempDewpointWater temp
2014-Jul-04 09:26N 29°59' W 090°49'4 5.0
2014-Jul-04 08:33N 30°01' W 090°45'8 0.4
2014-Jul-03 10:32N 30°03' W 090°36'0 0.0
2014-Jul-03 09:23N 30°03' W 090°36'0 0.0
2014-Jul-03 08:23N 30°03' W 090°36'0 0.0
2014-Jul-02 04:33N 30°02' W 090°36'0 0.4
2014-Jul-02 03:32N 30°03' W 090°36'0 0.0
2014-Jul-02 02:32N 30°03' W 090°36'0 0.0
2014-Jul-02 01:32N 30°03' W 090°36'0 0.0
2014-Jul-02 00:29N 30°03' W 090°36'0 0.0
2014-Jul-01 23:29N 30°03' W 090°36'0 0.0
2014-Jul-01 22:32N 30°03' W 090°36'0 0.0
2014-Jul-01 17:26N 30°03' W 090°36'0 0.0
2014-Jul-01 15:23N 30°03' W 090°36'0 0.1
2014-Jul-01 14:32N 30°03' W 090°36'0 0.1
2014-Jul-01 12:24N 30°03' W 090°36'0 0.0
2014-Jul-01 11:33N 30°03' W 090°36'0 0.0
2014-Jul-01 10:30N 30°03' W 090°36'0 0.0
2014-Jul-01 09:33N 30°03' W 090°36'0 0.0
2014-Jul-01 08:27N 30°03' W 090°36'0 0.0
2014-Jul-01 07:33N 30°03' W 090°36'0 0.0
2014-Jul-01 06:33N 30°03' W 090°36'0 0.0
2014-Jul-01 05:33N 30°03' W 090°36'0 0.0
2014-Jul-01 04:30N 30°03' W 090°36'0 0.0
2014-Jul-01 03:30N 30°03' W 090°36'0 0.0
2014-Jul-01 02:33N 30°03' W 090°36'0 0.0
2014-Jul-01 01:33N 30°03' W 090°36'0 0.0
2014-Jul-01 00:30N 30°03' W 090°36'0 0.0
2014-Jun-30 23:33N 30°03' W 090°36'0 0.0
2014-Jun-30 22:33N 30°03' W 090°36'0 0.2
2014-Jun-30 21:33N 30°03' W 090°36'0 0.1
2014-Jun-30 20:30N 30°03' W 090°36'0 0.2
2014-Jun-30 19:33N 30°03' W 090°35'0 0.0
2014-Jun-30 18:30N 30°03' W 090°35'0 0.2
2014-Jun-30 17:24N 30°03' W 090°36'0 0.3
2014-Jun-30 16:33N 30°03' W 090°35'  
Track history (hours):
 
Tides and Currents Weather Stations Pressure Air Temp Water Temp Dewpoint Dewpoint Depression Visibility Wind Speed Wind Dir Waves Ship Positions

Dennis J. Pasentine

More information available from US FCC via Universal Licensing System and Coast Guard Vessel Documentation Center.

Last reported at 2014-Jul-04 09:26 UTC. Time now 2014-Jul-25 09:04 UTC.
Position N 29°59' W 090°49'.
Warning: this ship's position is 20 days out of date.

Type: Other ship. MMSI: 367432180.

Date/timePositionNaut miles runAvg speedWind from/ knotsBaromVisibWave heightAir tempDewpointWater temp
2014-Jul-04 09:26N 29°59' W 090°49'4 5.0
2014-Jul-04 08:33N 30°01' W 090°45'8 0.4
2014-Jul-03 10:32N 30°03' W 090°36'0 0.0
2014-Jul-03 09:23N 30°03' W 090°36'0 0.0
2014-Jul-03 08:23N 30°03' W 090°36'0 0.0
2014-Jul-02 04:33N 30°02' W 090°36'0 0.4
2014-Jul-02 03:32N 30°03' W 090°36'0 0.0
2014-Jul-02 02:32N 30°03' W 090°36'0 0.0
2014-Jul-02 01:32N 30°03' W 090°36'0 0.0
2014-Jul-02 00:29N 30°03' W 090°36'0 0.0
2014-Jul-01 23:29N 30°03' W 090°36'0 0.0
2014-Jul-01 22:32N 30°03' W 090°36'0 0.0
2014-Jul-01 17:26N 30°03' W 090°36'0 0.0
2014-Jul-01 15:23N 30°03' W 090°36'0 0.1
2014-Jul-01 14:32N 30°03' W 090°36'0 0.1
2014-Jul-01 12:24N 30°03' W 090°36'0 0.0
2014-Jul-01 11:33N 30°03' W 090°36'0 0.0
2014-Jul-01 10:30N 30°03' W 090°36'0 0.0
2014-Jul-01 09:33N 30°03' W 090°36'0 0.0
2014-Jul-01 08:27N 30°03' W 090°36'0 0.0
2014-Jul-01 07:33N 30°03' W 090°36'0 0.0
2014-Jul-01 06:33N 30°03' W 090°36'0 0.0
2014-Jul-01 05:33N 30°03' W 090°36'0 0.0
2014-Jul-01 04:30N 30°03' W 090°36'0 0.0
2014-Jul-01 03:30N 30°03' W 090°36'0 0.0
2014-Jul-01 02:33N 30°03' W 090°36'0 0.0
2014-Jul-01 01:33N 30°03' W 090°36'0 0.0
2014-Jul-01 00:30N 30°03' W 090°36'0 0.0
2014-Jun-30 23:33N 30°03' W 090°36'0 0.0
2014-Jun-30 22:33N 30°03' W 090°36'0 0.2
2014-Jun-30 21:33N 30°03' W 090°36'0 0.1
2014-Jun-30 20:30N 30°03' W 090°36'0 0.2
2014-Jun-30 19:33N 30°03' W 090°35'0 0.0
2014-Jun-30 18:30N 30°03' W 090°35'0 0.2
2014-Jun-30 17:24N 30°03' W 090°36'0 0.3
2014-Jun-30 16:33N 30°03' W 090°35'  

Dump ship's entire track history